createdAt,value
2023-03-05T00:01:33.651Z,2.30
2023-03-05T00:04:04.094Z,2.00
2023-03-05T00:06:33.538Z,1.90
2023-03-05T00:09:02.463Z,2.30
2023-03-05T00:11:31.780Z,2.20
2023-03-05T00:14:03.580Z,2.20
2023-03-05T00:16:32.245Z,2.30
2023-03-05T00:19:01.726Z,2.60
2023-03-05T00:21:38.525Z,2.20
2023-03-05T00:24:11.072Z,2.50
2023-03-05T00:26:40.376Z,2.50
2023-03-05T00:29:09.428Z,2.50
2023-03-05T00:31:38.476Z,2.30
2023-03-05T00:34:11.152Z,2.50
2023-03-05T00:36:41.275Z,2.20
2023-03-05T00:39:09.779Z,2.30
2023-03-05T00:41:38.336Z,1.90
2023-03-05T00:44:07.113Z,1.90
2023-03-05T00:46:35.897Z,1.90
2023-03-05T00:49:04.724Z,1.90
2023-03-05T00:51:33.824Z,1.60
2023-03-05T00:54:04.016Z,1.40
2023-03-05T00:56:32.693Z,1.70
2023-03-05T00:59:01.315Z,1.40
2023-03-05T01:01:29.555Z,1.20
2023-03-05T01:03:59.703Z,1.40
2023-03-05T01:06:29.577Z,1.50
2023-03-05T01:08:59.274Z,1.50
2023-03-05T01:11:27.411Z,1.40
2023-03-05T01:13:55.497Z,1.80
2023-03-05T01:16:23.877Z,1.80
2023-03-05T01:18:52.256Z,2.00
2023-03-05T01:21:22.126Z,1.70
2023-03-05T01:23:50.232Z,1.90
2023-03-05T01:26:18.293Z,2.10
2023-03-05T01:28:46.522Z,2.00
2023-03-05T01:31:14.698Z,2.00
2023-03-05T01:33:42.932Z,1.90
2023-03-05T01:36:17.042Z,2.00
2023-03-05T01:38:47.634Z,2.40
2023-03-05T01:41:17.530Z,1.50
2023-03-05T01:43:48.373Z,1.90
2023-03-05T01:46:16.953Z,1.90
2023-03-05T01:48:53.291Z,1.70
2023-03-05T01:51:25.728Z,1.90
2023-03-05T01:53:58.165Z,2.20
2023-03-05T01:56:29.402Z,1.60
2023-03-05T01:59:03.758Z,1.60
2023-03-05T02:01:37.514Z,1.80
2023-03-05T02:04:08.910Z,1.60
2023-03-05T02:06:38.772Z,1.60
2023-03-05T02:09:06.890Z,1.90
2023-03-05T02:11:36.341Z,1.80
2023-03-05T02:14:07.784Z,2.00
2023-03-05T02:16:39.090Z,1.80
2023-03-05T02:19:10.847Z,1.60
2023-03-05T02:21:42.620Z,1.50
2023-03-05T02:24:16.458Z,1.20
2023-03-05T02:26:46.928Z,1.40
2023-03-05T02:29:20.095Z,1.20
2023-03-05T02:31:48.321Z,1.50
2023-03-05T02:34:16.710Z,1.60
2023-03-05T02:36:44.870Z,1.70
2023-03-05T02:39:13.683Z,1.80
2023-03-05T02:41:42.059Z,1.60
2023-03-05T02:44:10.159Z,1.90
2023-03-05T02:46:38.717Z,2.00
2023-03-05T02:49:06.827Z,1.30
2023-03-05T02:51:35.080Z,1.60
2023-03-05T02:54:03.740Z,1.60
2023-03-05T02:56:32.226Z,2.20
2023-03-05T02:59:02.366Z,1.70
2023-03-05T03:01:30.875Z,1.70
2023-03-05T03:03:59.432Z,1.60
2023-03-05T03:06:27.809Z,1.80
2023-03-05T03:08:55.984Z,1.90
2023-03-05T03:11:24.223Z,2.20
2023-03-05T03:13:52.395Z,2.40
2023-03-05T03:16:20.837Z,1.80
2023-03-05T03:18:49.106Z,1.80
2023-03-05T03:21:23.188Z,1.40
2023-03-05T03:23:51.498Z,1.50
2023-03-05T03:26:19.707Z,1.30
2023-03-05T03:28:47.832Z,1.80
2023-03-05T03:31:16.269Z,1.60
2023-03-05T03:33:45.350Z,1.30
2023-03-05T03:36:14.004Z,1.60
2023-03-05T03:38:43.300Z,1.50
2023-03-05T03:41:11.392Z,1.50
2023-03-05T03:43:39.421Z,0.90
2023-03-05T03:46:08.162Z,1.10
2023-03-05T03:48:36.664Z,1.30
2023-03-05T03:51:06.684Z,0.90
2023-03-05T03:53:35.041Z,1.20
2023-03-05T03:56:03.654Z,1.10
2023-03-05T03:58:32.263Z,1.20
2023-03-05T04:01:01.012Z,0.90
2023-03-05T04:03:29.096Z,1.40
2023-03-05T04:05:57.164Z,1.50
2023-03-05T04:08:25.437Z,1.20
2023-03-05T04:10:53.515Z,1.00
2023-03-05T04:13:21.915Z,1.00
2023-03-05T04:15:50.486Z,0.90
2023-03-05T04:18:18.749Z,1.10
2023-03-05T04:20:46.887Z,1.20
2023-03-05T04:23:15.256Z,1.20
2023-03-05T04:25:43.751Z,1.20
2023-03-05T04:28:12.829Z,1.30
2023-03-05T04:30:40.952Z,1.50
2023-03-05T04:33:08.997Z,0.80
2023-03-05T04:35:37.440Z,1.30
2023-03-05T04:38:05.714Z,1.40
2023-03-05T04:40:34.115Z,1.10
2023-03-05T04:43:02.251Z,1.30
2023-03-05T04:45:30.740Z,1.20
2023-03-05T04:47:58.802Z,1.40
2023-03-05T04:50:26.926Z,1.50
2023-03-05T04:52:55.070Z,1.00
2023-03-05T04:55:23.164Z,1.20
2023-03-05T04:57:51.196Z,0.90
2023-03-05T05:00:19.717Z,0.90
2023-03-05T05:02:50.103Z,0.90
2023-03-05T05:05:21.389Z,0.70
2023-03-05T05:07:49.823Z,0.90
2023-03-05T05:10:17.883Z,0.80
2023-03-05T05:12:45.913Z,0.90
2023-03-05T05:15:14.431Z,0.90
2023-03-05T05:17:42.615Z,0.80
2023-03-05T05:20:14.318Z,1.20
2023-03-05T05:22:43.011Z,1.10
2023-03-05T05:25:11.647Z,1.20
2023-03-05T05:27:40.316Z,1.20
2023-03-05T05:30:09.667Z,1.90
2023-03-05T05:32:37.685Z,1.10
2023-03-05T05:35:06.344Z,1.00
2023-03-05T05:37:34.854Z,1.00
2023-03-05T05:40:05.833Z,1.20
2023-03-05T05:42:34.594Z,1.00
2023-03-05T05:45:03.349Z,1.50
2023-03-05T05:47:31.472Z,1.10
2023-03-05T05:49:59.557Z,1.20
2023-03-05T05:52:27.924Z,1.10
2023-03-05T05:54:56.052Z,1.00
2023-03-05T05:57:25.277Z,1.10
2023-03-05T05:59:53.401Z,1.40
2023-03-05T06:02:21.755Z,1.40
2023-03-05T06:04:49.934Z,1.30
2023-03-05T06:07:18.196Z,1.10
2023-03-05T06:09:46.210Z,1.00
2023-03-05T06:12:14.357Z,1.40
2023-03-05T06:14:42.738Z,1.40
2023-03-05T06:17:12.871Z,1.20
2023-03-05T06:19:43.542Z,1.40
2023-03-05T06:22:11.938Z,1.20
2023-03-05T06:24:39.981Z,1.20
2023-03-05T06:27:08.206Z,1.20
2023-03-05T06:29:36.266Z,1.20
2023-03-05T06:32:04.747Z,1.50
2023-03-05T06:34:32.942Z,1.70
2023-03-05T06:37:01.012Z,1.90
2023-03-05T06:39:30.476Z,1.70
2023-03-05T06:41:58.650Z,2.30
2023-03-05T06:44:26.894Z,1.80
2023-03-05T06:46:54.967Z,1.60
2023-03-05T06:49:23.216Z,1.80
2023-03-05T06:51:51.255Z,2.00
2023-03-05T06:54:19.383Z,2.10
2023-03-05T06:56:47.746Z,2.00
2023-03-05T06:59:16.861Z,1.90
2023-03-05T07:01:45.900Z,1.70
2023-03-05T07:04:15.088Z,1.70
2023-03-05T07:06:43.514Z,2.10
2023-03-05T07:09:15.120Z,1.90
2023-03-05T07:11:43.867Z,1.80
2023-03-05T07:14:12.451Z,1.90
2023-03-05T07:16:40.534Z,2.10
2023-03-05T07:19:11.080Z,1.70
2023-03-05T07:21:40.103Z,1.60
2023-03-05T07:24:09.114Z,1.90
2023-03-05T07:26:37.520Z,1.70
2023-03-05T07:29:05.622Z,2.90
2023-03-05T07:31:33.843Z,1.80
2023-03-05T07:34:03.902Z,1.70
2023-03-05T07:36:35.072Z,1.70
2023-03-05T07:39:05.342Z,1.40
2023-03-05T07:41:33.947Z,1.20
2023-03-05T07:44:02.278Z,1.70
2023-03-05T07:46:32.795Z,1.30
2023-03-05T07:49:01.165Z,1.20
2023-03-05T07:51:29.865Z,1.40
2023-03-05T07:53:59.224Z,1.00
2023-03-05T07:56:35.461Z,1.00
2023-03-05T07:59:09.219Z,1.10
2023-03-05T08:01:38.336Z,0.90
2023-03-05T08:04:08.456Z,0.90
2023-03-05T08:06:40.008Z,1.10
2023-03-05T08:09:08.223Z,0.80
2023-03-05T08:11:36.352Z,1.00
2023-03-05T08:14:04.931Z,1.00
2023-03-05T08:16:33.213Z,1.30
2023-03-05T08:19:02.254Z,0.90
2023-03-05T08:21:35.728Z,1.00
2023-03-05T08:24:08.581Z,0.80
2023-03-05T08:26:38.619Z,1.00
2023-03-05T08:29:08.786Z,1.20
2023-03-05T08:31:38.098Z,1.00
2023-03-05T08:34:07.003Z,1.10
2023-03-05T08:36:35.191Z,0.70
2023-03-05T08:39:04.805Z,1.40
2023-03-05T08:41:33.497Z,0.60
2023-03-05T08:44:01.880Z,1.30
2023-03-05T08:46:30.532Z,0.70
2023-03-05T08:48:58.686Z,1.20
2023-03-05T08:51:27.541Z,1.60
2023-03-05T08:53:58.296Z,0.80
2023-03-05T08:56:28.840Z,1.10
2023-03-05T08:58:57.338Z,1.10
2023-03-05T09:01:25.580Z,0.90
2023-03-05T09:03:54.375Z,0.70
2023-03-05T09:06:22.874Z,0.90
2023-03-05T09:08:51.168Z,0.60
2023-03-05T09:11:19.769Z,0.80
2023-03-05T09:13:48.144Z,0.60
2023-03-05T09:16:18.375Z,0.60
2023-03-05T09:18:47.313Z,0.70
2023-03-05T09:21:18.115Z,0.60
2023-03-05T09:23:47.411Z,2.70
2023-03-05T09:26:19.504Z,1.30
2023-03-05T09:28:48.508Z,1.00
2023-03-05T09:31:17.513Z,0.70
2023-03-05T09:33:47.398Z,1.00
2023-03-05T09:36:25.204Z,0.80
2023-03-05T09:38:53.857Z,0.70
2023-03-05T09:41:37.050Z,0.50
2023-03-05T09:44:38.917Z,0.60
2023-03-05T09:47:21.704Z,0.50
2023-03-05T09:52:44.280Z,0.40
2023-03-05T09:55:24.507Z,0.50
2023-03-05T09:57:56.734Z,0.50
2023-03-05T10:00:34.296Z,0.40
2023-03-05T10:03:10.615Z,0.40
2023-03-05T10:05:58.068Z,0.70
2023-03-05T10:08:33.198Z,0.40
2023-03-05T10:11:06.956Z,1.30
2023-03-05T10:13:40.602Z,1.30
2023-03-05T10:16:45.191Z,1.20
2023-03-05T10:19:33.318Z,1.30
2023-03-05T10:22:22.877Z,1.00
2023-03-05T10:24:55.537Z,0.70
2023-03-05T10:27:52.028Z,0.60
2023-03-05T10:30:58.858Z,0.40
2023-03-05T10:33:35.719Z,0.70
2023-03-05T10:36:15.371Z,0.60
2023-03-05T10:38:57.186Z,0.50
2023-03-05T10:41:40.559Z,1.50
2023-03-05T10:44:18.205Z,1.50
2023-03-05T10:46:48.611Z,1.00
2023-03-05T10:49:32.978Z,1.30
2023-03-05T10:52:22.631Z,0.80
2023-03-05T10:54:51.240Z,1.10
2023-03-05T10:57:28.259Z,1.40
2023-03-05T11:00:05.717Z,0.60
2023-03-05T11:02:52.456Z,0.60
2023-03-05T11:05:49.073Z,0.70
2023-03-05T11:08:27.758Z,0.70
2023-03-05T11:11:08.145Z,0.50
2023-03-05T11:13:53.033Z,1.80
2023-03-05T11:16:29.079Z,1.00
2023-03-05T11:19:24.669Z,1.80
2023-03-05T11:22:19.350Z,1.90
2023-03-05T11:25:10.795Z,1.60
2023-03-05T11:27:51.021Z,1.10
2023-03-05T11:30:31.517Z,1.00
2023-03-05T11:33:22.929Z,1.70
2023-03-05T11:35:54.082Z,0.90
2023-03-05T11:38:27.770Z,1.30
2023-03-05T11:40:57.376Z,1.70
2023-03-05T11:43:26.399Z,2.60
2023-03-05T11:46:02.222Z,4.40
2023-03-05T11:48:39.906Z,1.00
2023-03-05T11:51:57.573Z,4.10
2023-03-05T11:54:53.781Z,1.50
2023-03-05T11:57:24.195Z,1.00
2023-03-05T11:59:55.536Z,1.00
2023-03-05T12:02:26.836Z,2.10
2023-03-05T12:04:56.398Z,1.50
2023-03-05T12:07:41.920Z,2.20
2023-03-05T12:10:36.497Z,1.00
2023-03-05T12:13:06.872Z,0.80
2023-03-05T12:16:01.998Z,2.50
2023-03-05T12:18:47.401Z,0.80
2023-03-05T12:21:26.190Z,2.30
2023-03-05T12:24:01.696Z,1.00
2023-03-05T12:27:04.688Z,1.00
2023-03-05T12:29:32.845Z,0.80
2023-03-05T12:32:01.596Z,0.70
2023-03-05T12:34:43.028Z,0.60
2023-03-05T12:37:11.505Z,1.20
2023-03-05T12:39:52.911Z,1.00
2023-03-05T12:42:30.085Z,0.90
2023-03-05T12:45:10.631Z,0.70
2023-03-05T12:47:40.669Z,1.20
2023-03-05T12:50:27.874Z,0.80
2023-03-05T12:52:58.640Z,0.60
2023-03-05T12:55:41.109Z,0.80
2023-03-05T12:58:15.140Z,0.90
2023-03-05T13:00:49.665Z,1.20
2023-03-05T13:03:31.373Z,1.10
2023-03-05T13:06:01.114Z,0.90
2023-03-05T13:08:37.374Z,0.80
2023-03-05T13:11:18.879Z,0.90
2023-03-05T13:13:48.496Z,0.80
2023-03-05T13:16:20.904Z,2.10
2023-03-05T13:18:50.762Z,1.30
2023-03-05T13:21:21.529Z,1.40
2023-03-05T13:24:01.051Z,3.80
2023-03-05T13:26:40.590Z,0.70
2023-03-05T13:29:14.677Z,0.90
2023-03-05T13:31:46.023Z,0.60
2023-03-05T13:34:46.251Z,0.80
2023-03-05T13:37:20.117Z,1.70
2023-03-05T13:39:56.814Z,1.20
2023-03-05T13:42:28.796Z,1.30
2023-03-05T13:44:59.542Z,0.90
2023-03-05T13:47:30.883Z,0.70
2023-03-05T13:50:05.957Z,0.90
2023-03-05T13:52:37.378Z,1.20
2023-03-05T13:55:13.343Z,1.40
2023-03-05T13:57:47.559Z,0.90
2023-03-05T14:00:28.028Z,0.80
2023-03-05T14:03:00.775Z,1.10
2023-03-05T14:05:31.433Z,1.20
2023-03-05T14:07:59.891Z,1.20
2023-03-05T14:10:37.724Z,1.90
2023-03-05T14:13:13.570Z,1.80
2023-03-05T14:15:42.016Z,1.00
2023-03-05T14:18:13.372Z,1.20
2023-03-05T14:21:02.776Z,0.90
2023-03-05T14:23:45.862Z,1.10
2023-03-05T14:26:28.814Z,0.70
2023-03-05T14:29:00.423Z,0.90
2023-03-05T14:31:31.457Z,0.80
2023-03-05T14:34:06.204Z,0.80
2023-03-05T14:36:34.969Z,0.70
2023-03-05T14:39:03.610Z,1.30
2023-03-05T14:41:41.278Z,0.90
2023-03-05T14:44:14.874Z,0.70
2023-03-05T14:46:48.167Z,0.80
2023-03-05T14:49:17.345Z,0.90
2023-03-05T14:51:46.766Z,0.80
2023-03-05T14:54:27.044Z,0.90
2023-03-05T14:56:55.434Z,0.90
2023-03-05T14:59:23.532Z,1.30
2023-03-05T15:01:52.086Z,1.10
2023-03-05T15:04:20.430Z,1.00
2023-03-05T15:06:51.278Z,1.80
2023-03-05T15:09:21.432Z,0.50
2023-03-05T15:11:49.725Z,0.70
2023-03-05T15:14:17.908Z,0.60
2023-03-05T15:16:46.728Z,1.40
2023-03-05T15:19:15.017Z,0.80
2023-03-05T15:21:43.123Z,1.20
2023-03-05T15:24:15.061Z,0.60
2023-03-05T15:26:43.452Z,0.80
2023-03-05T15:29:11.541Z,1.30
2023-03-05T15:31:40.631Z,1.40
2023-03-05T15:34:11.457Z,1.80
2023-03-05T15:36:39.555Z,1.60
2023-03-05T15:39:07.737Z,1.30
2023-03-05T15:41:35.870Z,3.90
2023-03-05T15:44:04.124Z,2.70
2023-03-05T15:46:33.306Z,1.80
2023-03-05T15:49:02.740Z,1.10
2023-03-05T15:51:30.829Z,0.60
2023-03-05T15:53:59.054Z,0.90
2023-03-05T15:56:27.218Z,1.00
2023-03-05T15:58:55.377Z,1.10
2023-03-05T16:01:23.694Z,1.40
2023-03-05T16:03:52.993Z,1.20
2023-03-05T16:06:24.020Z,1.90
2023-03-05T16:08:58.869Z,2.00
2023-03-05T16:11:28.117Z,1.30
2023-03-05T16:13:57.025Z,0.90
2023-03-05T16:16:25.478Z,0.80
2023-03-05T16:18:53.822Z,0.90
2023-03-05T16:21:22.072Z,2.20
2023-03-05T16:23:50.364Z,0.80
2023-03-05T16:26:19.185Z,1.00
2023-03-05T16:28:48.385Z,1.00
2023-03-05T16:31:16.476Z,0.80
2023-03-05T16:33:44.619Z,0.90
2023-03-05T16:36:21.016Z,2.00
2023-03-05T16:38:51.741Z,1.20
2023-03-05T16:41:22.521Z,1.70
2023-03-05T16:43:59.218Z,2.80
2023-03-05T16:46:29.626Z,3.30
2023-03-05T16:48:58.455Z,1.60
2023-03-05T16:51:27.266Z,1.50
2023-03-05T16:53:56.069Z,1.50
2023-03-05T16:56:24.669Z,1.20
2023-03-05T16:58:56.148Z,1.60
2023-03-05T17:01:24.812Z,1.90
2023-03-05T17:03:53.724Z,1.90
2023-03-05T17:06:26.501Z,1.70
2023-03-05T17:08:55.886Z,1.80
2023-03-05T17:11:25.918Z,1.70
2023-03-05T17:13:54.475Z,1.80
2023-03-05T17:16:23.154Z,1.50
2023-03-05T17:18:51.328Z,1.90
2023-03-05T17:21:19.622Z,1.70
2023-03-05T17:23:48.289Z,2.10
2023-03-05T17:26:18.878Z,2.40
2023-03-05T17:28:47.162Z,1.60
2023-03-05T17:31:15.701Z,2.50
2023-03-05T17:33:44.040Z,2.40
2023-03-05T17:36:17.675Z,2.50
2023-03-05T17:38:47.713Z,3.10
2023-03-05T17:41:17.469Z,3.20
2023-03-05T17:43:46.544Z,4.00
2023-03-05T17:46:16.064Z,3.00
2023-03-05T17:48:44.382Z,3.90
2023-03-05T17:51:16.827Z,4.00
2023-03-05T17:53:45.124Z,3.70
2023-03-05T17:56:16.931Z,3.20
2023-03-05T17:58:44.981Z,3.80
2023-03-05T18:01:25.803Z,3.40
2023-03-05T18:03:54.724Z,3.10
2023-03-05T18:06:23.238Z,3.80
2023-03-05T18:08:52.342Z,4.30
2023-03-05T18:11:21.114Z,3.70
2023-03-05T18:13:49.477Z,4.20
2023-03-05T18:16:18.382Z,4.30
2023-03-05T18:18:46.912Z,4.30
2023-03-05T18:21:24.968Z,4.40
2023-03-05T18:23:53.754Z,4.00
2023-03-05T18:26:22.202Z,3.80
2023-03-05T18:28:50.336Z,4.20
2023-03-05T18:31:19.518Z,4.40
2023-03-05T18:33:48.136Z,4.10
2023-03-05T18:36:17.153Z,4.10
2023-03-05T18:38:45.412Z,4.10
2023-03-05T18:41:22.850Z,4.60
2023-03-05T18:43:51.313Z,4.60
2023-03-05T18:46:19.757Z,4.70
2023-03-05T18:48:48.248Z,4.70
2023-03-05T18:51:22.061Z,4.90
2023-03-05T18:53:52.076Z,4.20
2023-03-05T18:56:21.008Z,4.20
2023-03-05T18:58:49.658Z,3.80
2023-03-05T19:01:18.902Z,3.80
2023-03-05T19:03:47.824Z,3.50
2023-03-05T19:06:17.803Z,4.00
2023-03-05T19:08:47.217Z,4.30
2023-03-05T19:11:28.133Z,4.60
2023-03-05T19:13:58.607Z,4.20
2023-03-05T19:16:32.440Z,4.60
2023-03-05T19:19:20.503Z,4.20
2023-03-05T19:21:53.591Z,4.10
2023-03-05T19:24:24.264Z,3.60
2023-03-05T19:26:55.631Z,4.00
2023-03-05T19:29:25.449Z,3.70
2023-03-05T19:31:54.544Z,3.90
2023-03-05T19:34:22.910Z,4.60
2023-03-05T19:36:51.263Z,4.10
2023-03-05T19:39:19.972Z,3.40
2023-03-05T19:41:48.446Z,3.70
2023-03-05T19:44:17.443Z,3.80
2023-03-05T19:46:48.597Z,4.40
2023-03-05T19:49:17.533Z,3.90
2023-03-05T19:51:46.490Z,4.30
2023-03-05T19:54:17.218Z,3.70
2023-03-05T19:56:47.117Z,3.80
2023-03-05T19:59:18.016Z,4.00
2023-03-05T20:01:46.150Z,4.00
2023-03-05T20:04:18.691Z,3.70
2023-03-05T20:06:47.433Z,3.80
2023-03-05T20:09:16.386Z,3.40
2023-03-05T20:11:45.740Z,3.80
2023-03-05T20:14:14.817Z,3.80
2023-03-05T20:16:43.551Z,3.50
2023-03-05T20:19:17.607Z,4.10
2023-03-05T20:21:46.199Z,3.70
2023-03-05T20:24:17.100Z,3.50
2023-03-05T20:26:47.230Z,3.20
2023-03-05T20:29:18.286Z,3.60
2023-03-05T20:31:50.214Z,3.30
2023-03-05T20:34:19.806Z,3.40
2023-03-05T20:36:48.066Z,3.40
2023-03-05T20:39:16.394Z,3.00
2023-03-05T20:41:44.839Z,3.50
2023-03-05T20:44:14.239Z,3.20
2023-03-05T20:47:41.074Z,3.20
2023-03-05T20:50:10.293Z,3.10
2023-03-05T20:52:38.657Z,3.10
2023-03-05T20:55:08.186Z,3.40
2023-03-05T20:57:36.650Z,3.40
2023-03-05T21:00:06.214Z,3.10
2023-03-05T21:02:34.680Z,2.80
2023-03-05T21:05:03.227Z,3.20
2023-03-05T21:07:31.530Z,3.10
2023-03-05T21:09:59.688Z,2.80
2023-03-05T21:12:28.974Z,3.00
2023-03-05T21:14:57.310Z,3.20
2023-03-05T21:17:26.557Z,2.90
2023-03-05T21:19:54.660Z,3.10
2023-03-05T21:22:22.734Z,3.10
2023-03-05T21:25:21.079Z,3.60
2023-03-05T21:28:02.193Z,3.60
2023-03-05T21:30:37.288Z,3.20
2023-03-05T21:33:08.914Z,3.10
2023-03-05T21:35:38.184Z,3.20
2023-03-05T21:38:07.908Z,2.90
2023-03-05T21:40:40.006Z,2.60
2023-03-05T21:43:08.319Z,2.70
2023-03-05T21:45:36.462Z,3.00
2023-03-05T21:48:04.888Z,2.40
2023-03-05T21:50:35.781Z,2.10
2023-03-05T21:53:03.945Z,2.10
2023-03-05T21:56:37.241Z,2.00
2023-03-05T22:01:33.584Z,2.50
2023-03-05T22:04:02.000Z,2.50
2023-03-05T22:06:31.448Z,2.30
2023-03-05T22:08:59.499Z,2.50
2023-03-05T22:11:28.093Z,2.60
2023-03-05T22:13:57.042Z,2.70
2023-03-05T22:16:27.119Z,2.20
2023-03-05T22:18:55.268Z,2.30
2023-03-05T22:21:29.015Z,2.20
2023-03-05T22:23:58.369Z,2.50
2023-03-05T22:26:35.499Z,2.40
2023-03-05T22:29:04.652Z,3.30
2023-03-05T22:31:33.028Z,2.60
2023-03-05T22:34:01.187Z,2.40
2023-03-05T22:36:29.729Z,2.50
2023-03-05T22:38:58.033Z,2.60
2023-03-05T22:41:26.268Z,3.10
2023-03-05T22:43:54.528Z,2.10
2023-03-05T22:46:25.487Z,2.50
2023-03-05T22:48:53.989Z,2.00
2023-03-05T22:51:22.090Z,1.90
2023-03-05T22:53:50.253Z,2.10
2023-03-05T22:56:19.763Z,2.20
2023-03-05T22:58:48.395Z,1.80
2023-03-05T23:01:23.596Z,2.20
2023-03-05T23:04:31.858Z,2.20
2023-03-05T23:07:23.812Z,2.20
2023-03-05T23:09:53.290Z,1.80
2023-03-05T23:12:23.238Z,2.50
2023-03-05T23:14:51.292Z,1.70
2023-03-05T23:17:19.786Z,1.80
2023-03-05T23:19:48.244Z,1.90
2023-03-05T23:22:16.343Z,1.90
2023-03-05T23:24:44.543Z,1.80
2023-03-05T23:27:15.618Z,2.00
2023-03-05T23:30:17.153Z,1.80
2023-03-05T23:32:51.099Z,2.20
2023-03-05T23:35:31.869Z,2.10
2023-03-05T23:38:01.576Z,1.80
2023-03-05T23:40:35.481Z,1.60
2023-03-05T23:43:04.289Z,2.20
2023-03-05T23:45:32.492Z,1.70
2023-03-05T23:48:01.460Z,1.60
2023-03-05T23:50:35.491Z,2.10
2023-03-05T23:53:04.413Z,2.30
2023-03-05T23:55:40.834Z,1.80
2023-03-05T23:58:09.266Z,1.90
